Dailey, West Virginia
Current Conditions -  °F | °C
As of 1:51 PM on Monday 20 Oct 2014 (Local Time) from KEKN Reporting Station
Broken Clouds Broken Clouds  
Wind Chill: 55°   Ceiling: 11000
Heat Index: 55°   Visibility: 10mi
Dew Point: 38°   Wind: 0mph
Humidity: 53%   Direction: NA
Pressure: 29.98"   Gusts: NA
Location:  38.8°N, 79.9°W
Report Text: KEKN 201751Z AUTO 00000KT 10SM BKN110 13/03 A2998 RMK AO2 SLP164 I6001 T01280033 10133 21006 58030 TSNO
Loading
Personal Weather Stations






























Interactive Weather Map
Tropical Storm Tracking
New forecast layout! Learn more

10-Day Weather Forecast

Advertisements
Track Severe Weather on mobile